sensor_id;sensor_type;location;lat;lon;timestamp;P1;durP1;ratioP1;P2;durP2;ratioP2
19560;SDS011;9927;47.792;10.616;2022-12-07T04:01:53;22.90;;;17.77;;
19560;SDS011;9927;47.792;10.616;2022-12-07T04:04:23;24.63;;;18.13;;
19560;SDS011;9927;47.792;10.616;2022-12-07T04:06:51;21.20;;;17.33;;
19560;SDS011;9927;47.792;10.616;2022-12-07T04:09:18;22.30;;;17.53;;
19560;SDS011;9927;47.792;10.616;2022-12-07T04:11:46;23.00;;;17.80;;
19560;SDS011;9927;47.792;10.616;2022-12-07T04:14:14;33.20;;;18.57;;
19560;SDS011;9927;47.792;10.616;2022-12-07T04:16:48;33.20;;;19.17;;
19560;SDS011;9927;47.792;10.616;2022-12-07T04:19:18;34.73;;;19.37;;
19560;SDS011;9927;47.792;10.616;2022-12-07T04:21:47;23.23;;;17.90;;
19560;SDS011;9927;47.792;10.616;2022-12-07T04:24:15;32.03;;;18.83;;
19560;SDS011;9927;47.792;10.616;2022-12-07T04:26:43;32.00;;;18.33;;
19560;SDS011;9927;47.792;10.616;2022-12-07T04:29:12;33.77;;;19.10;;
19560;SDS011;9927;47.792;10.616;2022-12-07T04:31:40;27.77;;;18.80;;
19560;SDS011;9927;47.792;10.616;2022-12-07T04:34:08;30.40;;;17.90;;
19560;SDS011;9927;47.792;10.616;2022-12-07T04:36:36;30.93;;;18.53;;
19560;SDS011;9927;47.792;10.616;2022-12-07T04:39:04;29.57;;;18.03;;
19560;SDS011;9927;47.792;10.616;2022-12-07T04:41:32;29.83;;;18.37;;
19560;SDS011;9927;47.792;10.616;2022-12-07T04:44:01;30.50;;;18.13;;
19560;SDS011;9927;47.792;10.616;2022-12-07T04:46:30;30.13;;;18.10;;
19560;SDS011;9927;47.792;10.616;2022-12-07T04:48:58;30.33;;;18.13;;
19560;SDS011;9927;47.792;10.616;2022-12-07T04:51:27;34.57;;;20.70;;
19560;SDS011;9927;47.792;10.616;2022-12-07T04:53:55;36.30;;;19.87;;
19560;SDS011;9927;47.792;10.616;2022-12-07T04:56:23;35.60;;;20.07;;
19560;SDS011;9927;47.792;10.616;2022-12-07T04:58:52;65.00;;;24.73;;
19560;SDS011;9927;47.792;10.616;2022-12-07T05:01:20;45.17;;;21.57;;
19560;SDS011;9927;47.792;10.616;2022-12-07T05:03:49;45.93;;;21.70;;
19560;SDS011;9927;47.792;10.616;2022-12-07T05:06:17;64.33;;;24.13;;
19560;SDS011;9927;47.792;10.616;2022-12-07T05:08:44;47.57;;;21.83;;
19560;SDS011;9927;47.792;10.616;2022-12-07T05:11:12;57.53;;;23.27;;
19560;SDS011;9927;47.792;10.616;2022-12-07T05:13:58;40.07;;;21.00;;
19560;SDS011;9927;47.792;10.616;2022-12-07T05:16:26;46.77;;;22.27;;
19560;SDS011;9927;47.792;10.616;2022-12-07T05:18:54;36.67;;;20.53;;
19560;SDS011;9927;47.792;10.616;2022-12-07T05:21:21;63.50;;;23.90;;
19560;SDS011;9927;47.792;10.616;2022-12-07T05:23:49;46.97;;;21.17;;
19560;SDS011;9927;47.792;10.616;2022-12-07T05:26:18;43.83;;;21.97;;
19560;SDS011;9927;47.792;10.616;2022-12-07T05:28:49;43.17;;;21.23;;
19560;SDS011;9927;47.792;10.616;2022-12-07T05:31:17;50.47;;;21.53;;
19560;SDS011;9927;47.792;10.616;2022-12-07T05:33:44;44.27;;;20.53;;
19560;SDS011;9927;47.792;10.616;2022-12-07T05:36:12;48.17;;;21.70;;
19560;SDS011;9927;47.792;10.616;2022-12-07T05:38:39;36.87;;;21.63;;
19560;SDS011;9927;47.792;10.616;2022-12-07T05:41:08;36.93;;;20.93;;
19560;SDS011;9927;47.792;10.616;2022-12-07T05:43:55;36.93;;;20.23;;
19560;SDS011;9927;47.792;10.616;2022-12-07T05:46:23;36.73;;;19.90;;
19560;SDS011;9927;47.792;10.616;2022-12-07T05:48:50;39.70;;;19.17;;
19560;SDS011;9927;47.792;10.616;2022-12-07T05:51:17;29.70;;;13.77;;
19560;SDS011;9927;47.792;10.616;2022-12-07T05:53:45;23.43;;;11.53;;
19560;SDS011;9927;47.792;10.616;2022-12-07T05:56:12;30.87;;;12.67;;
19560;SDS011;9927;47.792;10.616;2022-12-07T05:58:40;20.93;;;11.63;;
19560;SDS011;9927;47.792;10.616;2022-12-07T06:01:25;23.53;;;11.70;;
19560;SDS011;9927;47.792;10.616;2022-12-07T06:03:53;23.23;;;11.97;;
19560;SDS011;9927;47.792;10.616;2022-12-07T06:06:20;23.93;;;12.10;;
19560;SDS011;9927;47.792;10.616;2022-12-07T06:08:47;26.83;;;13.07;;
19560;SDS011;9927;47.792;10.616;2022-12-07T06:11:15;27.73;;;13.27;;
19560;SDS011;9927;47.792;10.616;2022-12-07T06:14:00;19.40;;;12.37;;
19560;SDS011;9927;47.792;10.616;2022-12-07T06:16:28;33.57;;;14.77;;
19560;SDS011;9927;47.792;10.616;2022-12-07T06:18:55;30.67;;;14.23;;
19560;SDS011;9927;47.792;10.616;2022-12-07T06:21:23;23.83;;;12.93;;
19560;SDS011;9927;47.792;10.616;2022-12-07T06:23:52;37.63;;;16.33;;
19560;SDS011;9927;47.792;10.616;2022-12-07T06:26:19;27.70;;;14.60;;
19560;SDS011;9927;47.792;10.616;2022-12-07T06:28:46;30.07;;;14.63;;
19560;SDS011;9927;47.792;10.616;2022-12-07T06:31:14;45.60;;;15.97;;
19560;SDS011;9927;47.792;10.616;2022-12-07T06:33:41;28.07;;;14.50;;
19560;SDS011;9927;47.792;10.616;2022-12-07T06:36:09;29.67;;;14.63;;
19560;SDS011;9927;47.792;10.616;2022-12-07T06:38:36;30.03;;;14.10;;
19560;SDS011;9927;47.792;10.616;2022-12-07T06:41:04;27.13;;;14.13;;
19560;SDS011;9927;47.792;10.616;2022-12-07T06:43:32;28.93;;;13.83;;
19560;SDS011;9927;47.792;10.616;2022-12-07T06:45:59;37.30;;;14.87;;
19560;SDS011;9927;47.792;10.616;2022-12-07T06:48:26;21.93;;;14.60;;
19560;SDS011;9927;47.792;10.616;2022-12-07T06:50:54;35.00;;;15.50;;
19560;SDS011;9927;47.792;10.616;2022-12-07T06:53:21;31.47;;;14.93;;
19560;SDS011;9927;47.792;10.616;2022-12-07T06:55:49;38.03;;;15.77;;
19560;SDS011;9927;47.792;10.616;2022-12-07T06:58:16;33.23;;;15.27;;
19560;SDS011;9927;47.792;10.616;2022-12-07T07:00:44;30.07;;;14.77;;
19560;SDS011;9927;47.792;10.616;2022-12-07T07:03:12;101.50;;;23.23;;
19560;SDS011;9927;47.792;10.616;2022-12-07T07:05:39;51.73;;;17.53;;
19560;SDS011;9927;47.792;10.616;2022-12-07T07:08:06;49.57;;;17.37;;
19560;SDS011;9927;47.792;10.616;2022-12-07T07:10:50;29.90;;;13.90;;
19560;SDS011;9927;47.792;10.616;2022-12-07T07:13:17;41.93;;;16.90;;
19560;SDS011;9927;47.792;10.616;2022-12-07T07:15:44;34.93;;;16.57;;
19560;SDS011;9927;47.792;10.616;2022-12-07T07:18:12;42.80;;;18.63;;
19560;SDS011;9927;47.792;10.616;2022-12-07T07:20:39;51.50;;;19.10;;
19560;SDS011;9927;47.792;10.616;2022-12-07T07:23:07;39.80;;;17.30;;
19560;SDS011;9927;47.792;10.616;2022-12-07T07:25:34;47.03;;;17.50;;
19560;SDS011;9927;47.792;10.616;2022-12-07T07:28:02;50.10;;;18.47;;
19560;SDS011;9927;47.792;10.616;2022-12-07T07:30:29;46.17;;;16.53;;
19560;SDS011;9927;47.792;10.616;2022-12-07T07:32:57;27.37;;;14.63;;
19560;SDS011;9927;47.792;10.616;2022-12-07T07:35:27;43.77;;;15.53;;
19560;SDS011;9927;47.792;10.616;2022-12-07T07:37:56;51.87;;;17.60;;
19560;SDS011;9927;47.792;10.616;2022-12-07T07:40:24;43.10;;;18.07;;
19560;SDS011;9927;47.792;10.616;2022-12-07T07:42:52;41.93;;;17.30;;
19560;SDS011;9927;47.792;10.616;2022-12-07T07:45:21;39.23;;;16.87;;
19560;SDS011;9927;47.792;10.616;2022-12-07T07:47:49;47.37;;;16.97;;
19560;SDS011;9927;47.792;10.616;2022-12-07T07:50:16;43.30;;;16.03;;
19560;SDS011;9927;47.792;10.616;2022-12-07T07:52:44;50.60;;;17.30;;
19560;SDS011;9927;47.792;10.616;2022-12-07T07:55:12;26.43;;;14.97;;
19560;SDS011;9927;47.792;10.616;2022-12-07T07:57:39;43.47;;;16.40;;
19560;SDS011;9927;47.792;10.616;2022-12-07T08:00:08;31.67;;;15.27;;
19560;SDS011;9927;47.792;10.616;2022-12-07T08:02:37;43.57;;;16.50;;
19560;SDS011;9927;47.792;10.616;2022-12-07T08:05:05;30.67;;;14.37;;
19560;SDS011;9927;47.792;10.616;2022-12-07T08:07:33;31.63;;;14.73;;
19560;SDS011;9927;47.792;10.616;2022-12-07T08:10:00;27.13;;;14.73;;
19560;SDS011;9927;47.792;10.616;2022-12-07T08:12:28;30.10;;;13.50;;
19560;SDS011;9927;47.792;10.616;2022-12-07T08:14:55;34.30;;;14.60;;
19560;SDS011;9927;47.792;10.616;2022-12-07T08:17:23;44.60;;;16.43;;
19560;SDS011;9927;47.792;10.616;2022-12-07T08:19:50;44.73;;;15.67;;
19560;SDS011;9927;47.792;10.616;2022-12-07T08:22:17;33.67;;;14.20;;
19560;SDS011;9927;47.792;10.616;2022-12-07T08:24:45;30.50;;;14.73;;
19560;SDS011;9927;47.792;10.616;2022-12-07T08:27:12;28.20;;;15.27;;
19560;SDS011;9927;47.792;10.616;2022-12-07T08:29:40;41.53;;;16.40;;
19560;SDS011;9927;47.792;10.616;2022-12-07T08:32:07;28.27;;;14.37;;
19560;SDS011;9927;47.792;10.616;2022-12-07T08:34:35;40.67;;;16.23;;
19560;SDS011;9927;47.792;10.616;2022-12-07T08:37:03;43.63;;;16.43;;
19560;SDS011;9927;47.792;10.616;2022-12-07T08:39:30;46.17;;;16.90;;
19560;SDS011;9927;47.792;10.616;2022-12-07T08:41:58;50.53;;;16.80;;
19560;SDS011;9927;47.792;10.616;2022-12-07T08:44:26;36.43;;;15.40;;
19560;SDS011;9927;47.792;10.616;2022-12-07T08:46:54;38.57;;;16.47;;
19560;SDS011;9927;47.792;10.616;2022-12-07T08:49:29;56.90;;;19.00;;
19560;SDS011;9927;47.792;10.616;2022-12-07T08:52:05;32.77;;;14.93;;
19560;SDS011;9927;47.792;10.616;2022-12-07T08:54:33;33.00;;;14.63;;
19560;SDS011;9927;47.792;10.616;2022-12-07T08:57:03;29.73;;;14.20;;
19560;SDS011;9927;47.792;10.616;2022-12-07T08:59:32;42.23;;;15.43;;
19560;SDS011;9927;47.792;10.616;2022-12-07T09:02:03;34.67;;;14.97;;
19560;SDS011;9927;47.792;10.616;2022-12-07T09:04:31;32.47;;;15.13;;
19560;SDS011;9927;47.792;10.616;2022-12-07T09:06:58;30.90;;;14.87;;
19560;SDS011;9927;47.792;10.616;2022-12-07T09:09:26;42.10;;;16.37;;
19560;SDS011;9927;47.792;10.616;2022-12-07T09:11:53;29.00;;;14.40;;
19560;SDS011;9927;47.792;10.616;2022-12-07T09:14:20;29.30;;;14.30;;
19560;SDS011;9927;47.792;10.616;2022-12-07T09:16:48;32.80;;;14.90;;
19560;SDS011;9927;47.792;10.616;2022-12-07T09:19:15;32.27;;;14.73;;
19560;SDS011;9927;47.792;10.616;2022-12-07T09:21:42;45.80;;;17.03;;
19560;SDS011;9927;47.792;10.616;2022-12-07T09:24:09;34.47;;;14.43;;
19560;SDS011;9927;47.792;10.616;2022-12-07T09:26:39;37.87;;;15.23;;
19560;SDS011;9927;47.792;10.616;2022-12-07T09:29:07;26.23;;;13.53;;
19560;SDS011;9927;47.792;10.616;2022-12-07T09:31:36;33.63;;;15.87;;
19560;SDS011;9927;47.792;10.616;2022-12-07T09:34:04;20.13;;;13.93;;
19560;SDS011;9927;47.792;10.616;2022-12-07T09:36:32;33.20;;;14.87;;
19560;SDS011;9927;47.792;10.616;2022-12-07T09:39:00;27.73;;;13.53;;
19560;SDS011;9927;47.792;10.616;2022-12-07T09:41:27;31.97;;;15.60;;
19560;SDS011;9927;47.792;10.616;2022-12-07T09:44:00;29.90;;;14.23;;
19560;SDS011;9927;47.792;10.616;2022-12-07T09:46:38;37.40;;;15.83;;
19560;SDS011;9927;47.792;10.616;2022-12-07T09:49:18;27.20;;;14.37;;
19560;SDS011;9927;47.792;10.616;2022-12-07T09:51:47;34.27;;;15.63;;
19560;SDS011;9927;47.792;10.616;2022-12-07T09:54:25;28.03;;;15.13;;
19560;SDS011;9927;47.792;10.616;2022-12-07T09:56:52;31.57;;;15.33;;
19560;SDS011;9927;47.792;10.616;2022-12-07T09:59:20;31.87;;;15.53;;
19560;SDS011;9927;47.792;10.616;2022-12-07T10:01:49;29.60;;;16.03;;
19560;SDS011;9927;47.792;10.616;2022-12-07T10:04:18;31.70;;;15.63;;
19560;SDS011;9927;47.792;10.616;2022-12-07T10:06:51;31.43;;;17.00;;
19560;SDS011;9927;47.792;10.616;2022-12-07T10:09:20;35.80;;;16.20;;
19560;SDS011;9927;47.792;10.616;2022-12-07T10:12:01;28.43;;;16.03;;
19560;SDS011;9927;47.792;10.616;2022-12-07T10:14:40;26.53;;;15.87;;
19560;SDS011;9927;47.792;10.616;2022-12-07T10:17:37;20.37;;;14.57;;
19560;SDS011;9927;47.792;10.616;2022-12-07T10:20:10;24.07;;;15.60;;
19560;SDS011;9927;47.792;10.616;2022-12-07T10:22:54;24.13;;;16.03;;
19560;SDS011;9927;47.792;10.616;2022-12-07T10:25:34;21.10;;;15.00;;
19560;SDS011;9927;47.792;10.616;2022-12-07T10:28:09;25.07;;;15.87;;
19560;SDS011;9927;47.792;10.616;2022-12-07T10:33:53;28.10;;;16.03;;
19560;SDS011;9927;47.792;10.616;2022-12-07T10:39:00;27.03;;;15.97;;
19560;SDS011;9927;47.792;10.616;2022-12-07T10:41:30;23.87;;;16.47;;
19560;SDS011;9927;47.792;10.616;2022-12-07T10:43:58;26.37;;;16.90;;
19560;SDS011;9927;47.792;10.616;2022-12-07T10:49:38;23.97;;;16.37;;
19560;SDS011;9927;47.792;10.616;2022-12-07T10:52:58;25.67;;;16.37;;
19560;SDS011;9927;47.792;10.616;2022-12-07T10:56:12;27.67;;;16.37;;
19560;SDS011;9927;47.792;10.616;2022-12-07T10:58:42;27.80;;;17.03;;
19560;SDS011;9927;47.792;10.616;2022-12-07T11:04:24;26.83;;;16.47;;
19560;SDS011;9927;47.792;10.616;2022-12-07T11:15:51;23.47;;;16.07;;
19560;SDS011;9927;47.792;10.616;2022-12-07T11:23:56;25.27;;;16.73;;
19560;SDS011;9927;47.792;10.616;2022-12-07T11:37:46;22.27;;;15.10;;
19560;SDS011;9927;47.792;10.616;2022-12-07T11:48:25;24.87;;;16.40;;
19560;SDS011;9927;47.792;10.616;2022-12-07T11:50:56;27.13;;;16.30;;
19560;SDS011;9927;47.792;10.616;2022-12-07T11:56:02;22.57;;;14.93;;
19560;SDS011;9927;47.792;10.616;2022-12-07T12:03:52;25.93;;;14.63;;
19560;SDS011;9927;47.792;10.616;2022-12-07T12:06:24;22.73;;;15.53;;
19560;SDS011;9927;47.792;10.616;2022-12-07T12:21:02;21.67;;;13.60;;
19560;SDS011;9927;47.792;10.616;2022-12-07T12:23:36;26.13;;;14.80;;
19560;SDS011;9927;47.792;10.616;2022-12-07T12:26:13;19.53;;;12.87;;
19560;SDS011;9927;47.792;10.616;2022-12-07T12:28:54;22.93;;;14.33;;
19560;SDS011;9927;47.792;10.616;2022-12-07T12:33:54;18.60;;;13.40;;
19560;SDS011;9927;47.792;10.616;2022-12-07T12:36:28;21.53;;;14.23;;
19560;SDS011;9927;47.792;10.616;2022-12-07T12:39:14;19.73;;;13.07;;
19560;SDS011;9927;47.792;10.616;2022-12-07T12:51:47;23.17;;;14.77;;
19560;SDS011;9927;47.792;10.616;2022-12-07T12:56:52;23.17;;;14.47;;
19560;SDS011;9927;47.792;10.616;2022-12-07T13:23:32;20.17;;;13.47;;
19560;SDS011;9927;47.792;10.616;2022-12-07T13:28:49;23.00;;;17.63;;
19560;SDS011;9927;47.792;10.616;2022-12-07T13:34:01;17.77;;;13.50;;
19560;SDS011;9927;47.792;10.616;2022-12-07T13:36:30;19.80;;;13.90;;
19560;SDS011;9927;47.792;10.616;2022-12-07T13:41:49;27.90;;;15.27;;
19560;SDS011;9927;47.792;10.616;2022-12-07T13:44:22;20.17;;;13.60;;
19560;SDS011;9927;47.792;10.616;2022-12-07T13:49:50;24.10;;;15.13;;
19560;SDS011;9927;47.792;10.616;2022-12-07T13:52:24;20.00;;;14.17;;
19560;SDS011;9927;47.792;10.616;2022-12-07T13:57:33;15.17;;;11.57;;
19560;SDS011;9927;47.792;10.616;2022-12-07T14:00:03;12.90;;;11.43;;
19560;SDS011;9927;47.792;10.616;2022-12-07T14:02:54;16.73;;;11.57;;
19560;SDS011;9927;47.792;10.616;2022-12-07T14:05:28;12.97;;;11.03;;
19560;SDS011;9927;47.792;10.616;2022-12-07T14:08:04;19.67;;;12.03;;
19560;SDS011;9927;47.792;10.616;2022-12-07T14:13:37;16.50;;;10.67;;
19560;SDS011;9927;47.792;10.616;2022-12-07T14:16:22;12.97;;;10.43;;
19560;SDS011;9927;47.792;10.616;2022-12-07T14:18:58;20.73;;;13.17;;
19560;SDS011;9927;47.792;10.616;2022-12-07T14:21:28;12.53;;;9.93;;
19560;SDS011;9927;47.792;10.616;2022-12-07T14:24:11;13.83;;;10.90;;
19560;SDS011;9927;47.792;10.616;2022-12-07T14:26:38;13.63;;;10.27;;
19560;SDS011;9927;47.792;10.616;2022-12-07T14:31:52;13.93;;;10.90;;
19560;SDS011;9927;47.792;10.616;2022-12-07T14:34:22;13.90;;;10.43;;
19560;SDS011;9927;47.792;10.616;2022-12-07T14:36:50;17.17;;;11.80;;
19560;SDS011;9927;47.792;10.616;2022-12-07T14:39:17;14.57;;;11.47;;
19560;SDS011;9927;47.792;10.616;2022-12-07T14:41:44;13.77;;;10.60;;
19560;SDS011;9927;47.792;10.616;2022-12-07T14:44:19;15.70;;;11.40;;
19560;SDS011;9927;47.792;10.616;2022-12-07T14:46:51;12.83;;;10.33;;
19560;SDS011;9927;47.792;10.616;2022-12-07T14:49:40;16.57;;;11.80;;
19560;SDS011;9927;47.792;10.616;2022-12-07T14:52:15;12.90;;;10.13;;
19560;SDS011;9927;47.792;10.616;2022-12-07T14:55:12;13.03;;;10.97;;
19560;SDS011;9927;47.792;10.616;2022-12-07T14:57:42;13.77;;;11.10;;
19560;SDS011;9927;47.792;10.616;2022-12-07T15:00:12;13.10;;;10.20;;
19560;SDS011;9927;47.792;10.616;2022-12-07T15:02:40;13.43;;;10.40;;
19560;SDS011;9927;47.792;10.616;2022-12-07T15:05:08;14.40;;;10.03;;
19560;SDS011;9927;47.792;10.616;2022-12-07T15:07:41;12.40;;;9.90;;
19560;SDS011;9927;47.792;10.616;2022-12-07T15:10:13;15.50;;;10.73;;
19560;SDS011;9927;47.792;10.616;2022-12-07T15:12:47;14.97;;;10.80;;
19560;SDS011;9927;47.792;10.616;2022-12-07T15:15:15;14.57;;;10.40;;
19560;SDS011;9927;47.792;10.616;2022-12-07T15:17:43;16.37;;;11.27;;
19560;SDS011;9927;47.792;10.616;2022-12-07T15:20:16;102.93;;;53.83;;
19560;SDS011;9927;47.792;10.616;2022-12-07T15:22:43;49.83;;;28.93;;
19560;SDS011;9927;47.792;10.616;2022-12-07T15:25:13;36.83;;;23.23;;
19560;SDS011;9927;47.792;10.616;2022-12-07T15:27:41;25.67;;;17.30;;
19560;SDS011;9927;47.792;10.616;2022-12-07T15:30:08;21.37;;;14.30;;
19560;SDS011;9927;47.792;10.616;2022-12-07T15:32:36;18.53;;;15.30;;
19560;SDS011;9927;47.792;10.616;2022-12-07T15:35:03;17.07;;;12.77;;
19560;SDS011;9927;47.792;10.616;2022-12-07T15:37:31;18.03;;;12.97;;
19560;SDS011;9927;47.792;10.616;2022-12-07T15:39:59;19.30;;;12.47;;
19560;SDS011;9927;47.792;10.616;2022-12-07T15:42:33;18.20;;;12.77;;
19560;SDS011;9927;47.792;10.616;2022-12-07T15:45:02;15.70;;;11.83;;
19560;SDS011;9927;47.792;10.616;2022-12-07T15:47:35;16.47;;;12.27;;
19560;SDS011;9927;47.792;10.616;2022-12-07T15:50:23;15.37;;;11.40;;
19560;SDS011;9927;47.792;10.616;2022-12-07T15:52:50;17.67;;;12.83;;
19560;SDS011;9927;47.792;10.616;2022-12-07T15:55:17;18.37;;;12.50;;
19560;SDS011;9927;47.792;10.616;2022-12-07T15:57:45;15.93;;;12.20;;
19560;SDS011;9927;47.792;10.616;2022-12-07T16:00:12;16.73;;;12.17;;
19560;SDS011;9927;47.792;10.616;2022-12-07T16:02:40;19.00;;;12.60;;
19560;SDS011;9927;47.792;10.616;2022-12-07T16:05:07;18.13;;;12.30;;
19560;SDS011;9927;47.792;10.616;2022-12-07T16:07:35;16.60;;;11.60;;
19560;SDS011;9927;47.792;10.616;2022-12-07T16:10:02;15.67;;;11.73;;
19560;SDS011;9927;47.792;10.616;2022-12-07T16:12:30;18.57;;;13.87;;
19560;SDS011;9927;47.792;10.616;2022-12-07T16:14:57;16.53;;;12.37;;
19560;SDS011;9927;47.792;10.616;2022-12-07T16:17:24;16.20;;;12.63;;
19560;SDS011;9927;47.792;10.616;2022-12-07T16:19:51;24.40;;;14.87;;
19560;SDS011;9927;47.792;10.616;2022-12-07T16:22:20;24.20;;;13.73;;
19560;SDS011;9927;47.792;10.616;2022-12-07T16:24:47;22.63;;;14.23;;
19560;SDS011;9927;47.792;10.616;2022-12-07T16:27:14;20.00;;;14.17;;
19560;SDS011;9927;47.792;10.616;2022-12-07T16:29:42;23.70;;;14.50;;
19560;SDS011;9927;47.792;10.616;2022-12-07T16:32:09;18.90;;;12.87;;
19560;SDS011;9927;47.792;10.616;2022-12-07T16:34:37;17.00;;;12.73;;
19560;SDS011;9927;47.792;10.616;2022-12-07T16:37:06;18.40;;;12.37;;
19560;SDS011;9927;47.792;10.616;2022-12-07T16:39:33;21.87;;;13.17;;
19560;SDS011;9927;47.792;10.616;2022-12-07T16:42:01;17.33;;;12.63;;
19560;SDS011;9927;47.792;10.616;2022-12-07T16:44:29;18.87;;;12.77;;
19560;SDS011;9927;47.792;10.616;2022-12-07T16:46:58;17.90;;;13.40;;
19560;SDS011;9927;47.792;10.616;2022-12-07T16:49:26;26.77;;;16.93;;
19560;SDS011;9927;47.792;10.616;2022-12-07T16:51:54;22.43;;;15.83;;
19560;SDS011;9927;47.792;10.616;2022-12-07T16:54:41;20.83;;;15.30;;
19560;SDS011;9927;47.792;10.616;2022-12-07T16:57:09;23.47;;;15.40;;
19560;SDS011;9927;47.792;10.616;2022-12-07T16:59:44;28.67;;;17.07;;
19560;SDS011;9927;47.792;10.616;2022-12-07T17:02:11;21.80;;;14.90;;
19560;SDS011;9927;47.792;10.616;2022-12-07T17:04:39;24.07;;;15.73;;
19560;SDS011;9927;47.792;10.616;2022-12-07T17:07:08;23.00;;;14.93;;
19560;SDS011;9927;47.792;10.616;2022-12-07T17:09:36;26.67;;;17.10;;
19560;SDS011;9927;47.792;10.616;2022-12-07T17:12:04;20.73;;;14.93;;
19560;SDS011;9927;47.792;10.616;2022-12-07T17:14:32;19.47;;;14.03;;
19560;SDS011;9927;47.792;10.616;2022-12-07T17:17:18;16.83;;;12.67;;
19560;SDS011;9927;47.792;10.616;2022-12-07T17:19:45;27.27;;;15.50;;
19560;SDS011;9927;47.792;10.616;2022-12-07T17:22:13;21.80;;;14.83;;
19560;SDS011;9927;47.792;10.616;2022-12-07T17:24:40;20.43;;;14.20;;
19560;SDS011;9927;47.792;10.616;2022-12-07T17:27:07;21.80;;;14.17;;
19560;SDS011;9927;47.792;10.616;2022-12-07T17:29:34;22.17;;;14.80;;
19560;SDS011;9927;47.792;10.616;2022-12-07T17:32:02;18.60;;;13.70;;
19560;SDS011;9927;47.792;10.616;2022-12-07T17:34:29;23.00;;;15.50;;
19560;SDS011;9927;47.792;10.616;2022-12-07T17:36:57;20.37;;;15.80;;
19560;SDS011;9927;47.792;10.616;2022-12-07T17:39:24;20.57;;;14.43;;
19560;SDS011;9927;47.792;10.616;2022-12-07T17:41:51;20.97;;;15.57;;
19560;SDS011;9927;47.792;10.616;2022-12-07T17:44:37;26.37;;;17.03;;
19560;SDS011;9927;47.792;10.616;2022-12-07T17:47:04;24.47;;;17.67;;
19560;SDS011;9927;47.792;10.616;2022-12-07T17:49:33;29.33;;;19.47;;
19560;SDS011;9927;47.792;10.616;2022-12-07T17:52:00;27.27;;;17.60;;
19560;SDS011;9927;47.792;10.616;2022-12-07T17:54:46;23.37;;;16.97;;
19560;SDS011;9927;47.792;10.616;2022-12-07T17:57:14;23.60;;;16.37;;
19560;SDS011;9927;47.792;10.616;2022-12-07T17:59:41;25.80;;;17.37;;
19560;SDS011;9927;47.792;10.616;2022-12-07T18:02:08;17.60;;;14.10;;
19560;SDS011;9927;47.792;10.616;2022-12-07T18:04:36;16.10;;;12.77;;
19560;SDS011;9927;47.792;10.616;2022-12-07T18:07:04;19.00;;;14.40;;
19560;SDS011;9927;47.792;10.616;2022-12-07T18:09:32;29.40;;;16.43;;
19560;SDS011;9927;47.792;10.616;2022-12-07T18:12:00;21.90;;;14.13;;
19560;SDS011;9927;47.792;10.616;2022-12-07T18:14:27;23.57;;;15.53;;
19560;SDS011;9927;47.792;10.616;2022-12-07T18:16:55;23.07;;;15.53;;
19560;SDS011;9927;47.792;10.616;2022-12-07T18:19:22;20.90;;;14.53;;
19560;SDS011;9927;47.792;10.616;2022-12-07T18:21:49;19.90;;;14.00;;
19560;SDS011;9927;47.792;10.616;2022-12-07T18:24:17;22.13;;;14.90;;
19560;SDS011;9927;47.792;10.616;2022-12-07T18:26:45;18.30;;;14.20;;
19560;SDS011;9927;47.792;10.616;2022-12-07T18:29:14;20.87;;;14.83;;
19560;SDS011;9927;47.792;10.616;2022-12-07T18:31:43;24.07;;;15.33;;
19560;SDS011;9927;47.792;10.616;2022-12-07T18:34:14;22.70;;;15.50;;
19560;SDS011;9927;47.792;10.616;2022-12-07T18:36:43;21.27;;;14.97;;
19560;SDS011;9927;47.792;10.616;2022-12-07T18:39:13;24.13;;;16.00;;
19560;SDS011;9927;47.792;10.616;2022-12-07T18:41:41;26.60;;;14.80;;
19560;SDS011;9927;47.792;10.616;2022-12-07T18:44:09;22.27;;;14.67;;
19560;SDS011;9927;47.792;10.616;2022-12-07T18:46:38;22.17;;;14.83;;
19560;SDS011;9927;47.792;10.616;2022-12-07T18:49:08;21.33;;;15.73;;
19560;SDS011;9927;47.792;10.616;2022-12-07T18:51:38;22.43;;;15.37;;
19560;SDS011;9927;47.792;10.616;2022-12-07T18:54:05;18.13;;;14.43;;
19560;SDS011;9927;47.792;10.616;2022-12-07T18:56:33;23.37;;;16.27;;
19560;SDS011;9927;47.792;10.616;2022-12-07T18:59:01;20.70;;;15.17;;
19560;SDS011;9927;47.792;10.616;2022-12-07T19:01:50;23.53;;;16.87;;
19560;SDS011;9927;47.792;10.616;2022-12-07T19:04:19;25.03;;;17.60;;
19560;SDS011;9927;47.792;10.616;2022-12-07T19:06:47;23.13;;;17.30;;
19560;SDS011;9927;47.792;10.616;2022-12-07T19:09:15;23.33;;;16.83;;
19560;SDS011;9927;47.792;10.616;2022-12-07T19:11:43;24.37;;;17.53;;
19560;SDS011;9927;47.792;10.616;2022-12-07T19:14:24;22.37;;;16.50;;
19560;SDS011;9927;47.792;10.616;2022-12-07T19:16:55;24.83;;;16.83;;
19560;SDS011;9927;47.792;10.616;2022-12-07T19:19:28;20.50;;;15.60;;
19560;SDS011;9927;47.792;10.616;2022-12-07T19:21:57;24.23;;;16.00;;
19560;SDS011;9927;47.792;10.616;2022-12-07T19:24:24;23.33;;;15.53;;
19560;SDS011;9927;47.792;10.616;2022-12-07T19:26:52;20.00;;;14.97;;
19560;SDS011;9927;47.792;10.616;2022-12-07T19:29:19;23.83;;;16.13;;
19560;SDS011;9927;47.792;10.616;2022-12-07T19:31:47;26.20;;;16.67;;
19560;SDS011;9927;47.792;10.616;2022-12-07T19:34:15;24.93;;;16.93;;
19560;SDS011;9927;47.792;10.616;2022-12-07T19:36:43;24.37;;;16.27;;
19560;SDS011;9927;47.792;10.616;2022-12-07T19:39:11;25.50;;;16.60;;
19560;SDS011;9927;47.792;10.616;2022-12-07T19:41:41;26.97;;;16.83;;
19560;SDS011;9927;47.792;10.616;2022-12-07T19:44:14;27.30;;;16.80;;
19560;SDS011;9927;47.792;10.616;2022-12-07T19:46:43;21.33;;;14.83;;
19560;SDS011;9927;47.792;10.616;2022-12-07T19:49:12;27.73;;;16.07;;
19560;SDS011;9927;47.792;10.616;2022-12-07T19:51:44;22.57;;;14.63;;
19560;SDS011;9927;47.792;10.616;2022-12-07T19:54:13;27.83;;;15.87;;
19560;SDS011;9927;47.792;10.616;2022-12-07T19:56:42;24.27;;;14.80;;
19560;SDS011;9927;47.792;10.616;2022-12-07T19:59:10;22.83;;;14.90;;
19560;SDS011;9927;47.792;10.616;2022-12-07T20:01:41;22.27;;;13.97;;
19560;SDS011;9927;47.792;10.616;2022-12-07T20:04:16;18.40;;;13.57;;
19560;SDS011;9927;47.792;10.616;2022-12-07T20:06:49;20.53;;;14.30;;
19560;SDS011;9927;47.792;10.616;2022-12-07T20:09:21;22.90;;;14.73;;
19560;SDS011;9927;47.792;10.616;2022-12-07T20:11:49;28.13;;;15.03;;
19560;SDS011;9927;47.792;10.616;2022-12-07T20:14:35;21.80;;;14.43;;
19560;SDS011;9927;47.792;10.616;2022-12-07T20:17:03;28.77;;;16.27;;
19560;SDS011;9927;47.792;10.616;2022-12-07T20:19:31;20.57;;;14.57;;
19560;SDS011;9927;47.792;10.616;2022-12-07T20:21:58;26.17;;;16.30;;
19560;SDS011;9927;47.792;10.616;2022-12-07T20:24:25;27.23;;;15.87;;
19560;SDS011;9927;47.792;10.616;2022-12-07T20:26:53;24.20;;;15.07;;
19560;SDS011;9927;47.792;10.616;2022-12-07T20:29:22;31.53;;;17.27;;
19560;SDS011;9927;47.792;10.616;2022-12-07T20:31:51;23.50;;;15.67;;
19560;SDS011;9927;47.792;10.616;2022-12-07T20:34:19;24.67;;;15.17;;
19560;SDS011;9927;47.792;10.616;2022-12-07T20:36:46;24.13;;;15.30;;
19560;SDS011;9927;47.792;10.616;2022-12-07T20:39:14;34.20;;;17.70;;
19560;SDS011;9927;47.792;10.616;2022-12-07T20:41:41;23.80;;;15.90;;
19560;SDS011;9927;47.792;10.616;2022-12-07T20:44:27;21.10;;;14.57;;